Copenhagen, Denmark
Current Conditions -  °F | °C
As of 4:50 PM on Thursday 27 Nov 2014 (Local Time) from EKCH Reporting Station
Few Clouds Few Clouds  
Wind Chill: 33°   Ceiling: Unl
Heat Index: 41°   Visibility: 6mi
Dew Point: 36°   Wind: 16mph
Humidity: 81%   Direction: 110°ESE
Pressure: 30.12"   Gusts: NA
Location:  55.68°N, 12.57°E
Report Text: EKCH 271550Z 11014KT 9999 FEW019 05/02 Q1020 NOSIG
Loading
Personal Weather Stations






























Interactive Weather Map New forecast layout! Learn more

10-Day Weather Forecast

Advertisements
Track Severe Weather on mobile